sensor_id;sensor_type;location;lat;lon;timestamp;pressure;altitude;pressure_sealevel;temperature;humidity
8515;BME280;4295;51.024;7.000;2022-09-27T00:01:57;-13968.63;;;-143.72;100.00
8515;BME280;4295;51.024;7.000;2022-09-27T00:04:22;-13968.63;;;-143.72;100.00
8515;BME280;4295;51.024;7.000;2022-09-27T00:06:48;-13968.63;;;-143.72;100.00
8515;BME280;4295;51.024;7.000;2022-09-27T00:09:13;-13968.63;;;-143.72;100.00
8515;BME280;4295;51.024;7.000;2022-09-27T00:11:40;-13968.63;;;-143.72;100.00
8515;BME280;4295;51.024;7.000;2022-09-27T00:14:11;-13719.63;;;-143.72;100.00
8515;BME280;4295;51.024;7.000;2022-09-27T00:16:37;-13719.63;;;-143.72;100.00
8515;BME280;4295;51.024;7.000;2022-09-27T00:19:16;-13719.63;;;-143.72;100.00
8515;BME280;4295;51.024;7.000;2022-09-27T00:21:42;-13719.63;;;-143.72;100.00
8515;BME280;4295;51.024;7.000;2022-09-27T00:24:15;-13719.63;;;-143.72;100.00
8515;BME280;4295;51.024;7.000;2022-09-27T00:26:41;-13719.63;;;-143.72;100.00
8515;BME280;4295;51.024;7.000;2022-09-27T00:29:08;-13719.63;;;-143.72;100.00
8515;BME280;4295;51.024;7.000;2022-09-27T00:31:36;-13719.63;;;-143.72;100.00
8515;BME280;4295;51.024;7.000;2022-09-27T00:34:03;-13719.63;;;-143.72;100.00
8515;BME280;4295;51.024;7.000;2022-09-27T00:36:30;-13470.59;;;-143.72;100.00
8515;BME280;4295;51.024;7.000;2022-09-27T00:38:56;-13470.59;;;-143.72;100.00
8515;BME280;4295;51.024;7.000;2022-09-27T00:41:33;-13470.59;;;-143.72;100.00
8515;BME280;4295;51.024;7.000;2022-09-27T00:44:04;-13470.59;;;-143.72;100.00
8515;BME280;4295;51.024;7.000;2022-09-27T00:46:54;-13470.59;;;-143.72;100.00
8515;BME280;4295;51.024;7.000;2022-09-27T00:49:28;-13470.59;;;-143.72;100.00
8515;BME280;4295;51.024;7.000;2022-09-27T00:52:00;-13470.59;;;-143.72;100.00
8515;BME280;4295;51.024;7.000;2022-09-27T00:54:28;-13470.59;;;-143.72;100.00
8515;BME280;4295;51.024;7.000;2022-09-27T00:56:56;-13470.59;;;-143.72;100.00
8515;BME280;4295;51.024;7.000;2022-09-27T01:01:50;-13470.59;;;-143.72;100.00
8515;BME280;4295;51.024;7.000;2022-09-27T01:04:18;-13470.59;;;-143.72;100.00
8515;BME280;4295;51.024;7.000;2022-09-27T01:06:48;-13221.53;;;-143.72;100.00
8515;BME280;4295;51.024;7.000;2022-09-27T01:09:14;-13221.53;;;-143.72;100.00
8515;BME280;4295;51.024;7.000;2022-09-27T01:25:39;-13221.53;;;-143.72;100.00
8515;BME280;4295;51.024;7.000;2022-09-27T01:28:22;-13221.53;;;-143.72;100.00
8515;BME280;4295;51.024;7.000;2022-09-27T01:31:09;-12972.47;;;-143.72;100.00
8515;BME280;4295;51.024;7.000;2022-09-27T01:33:54;-12972.47;;;-143.72;100.00
8515;BME280;4295;51.024;7.000;2022-09-27T01:36:32;-12972.47;;;-143.72;100.00
8515;BME280;4295;51.024;7.000;2022-09-27T01:44:12;-12972.47;;;-143.72;100.00
8515;BME280;4295;51.024;7.000;2022-09-27T01:46:50;-12972.47;;;-143.72;100.00
8515;BME280;4295;51.024;7.000;2022-09-27T01:49:25;-12972.47;;;-143.72;100.00
8515;BME280;4295;51.024;7.000;2022-09-27T01:51:58;-12972.47;;;-143.72;100.00
8515;BME280;4295;51.024;7.000;2022-09-27T01:54:30;-12972.47;;;-143.72;100.00
8515;BME280;4295;51.024;7.000;2022-09-27T01:56:59;-12972.47;;;-143.72;100.00
8515;BME280;4295;51.024;7.000;2022-09-27T01:59:37;-12972.47;;;-143.72;100.00
8515;BME280;4295;51.024;7.000;2022-09-27T02:02:07;-12972.47;;;-143.72;100.00
8515;BME280;4295;51.024;7.000;2022-09-27T02:04:36;-12972.47;;;-143.72;100.00
8515;BME280;4295;51.024;7.000;2022-09-27T02:07:14;-12972.47;;;-143.72;100.00
8515;BME280;4295;51.024;7.000;2022-09-27T02:09:51;-13221.53;;;-143.72;100.00
8515;BME280;4295;51.024;7.000;2022-09-27T02:12:27;-13221.53;;;-143.72;100.00
8515;BME280;4295;51.024;7.000;2022-09-27T02:14:59;-13221.53;;;-143.72;100.00
8515;BME280;4295;51.024;7.000;2022-09-27T02:20:02;-12972.47;;;-143.72;100.00
8515;BME280;4295;51.024;7.000;2022-09-27T02:25:15;-12972.47;;;-143.72;100.00
8515;BME280;4295;51.024;7.000;2022-09-27T02:30:27;-12972.47;;;-143.72;100.00
8515;BME280;4295;51.024;7.000;2022-09-27T02:32:53;-12723.41;;;-143.72;100.00
8515;BME280;4295;51.024;7.000;2022-09-27T02:35:24;-12723.41;;;-143.72;100.00
8515;BME280;4295;51.024;7.000;2022-09-27T02:37:51;-12972.47;;;-143.72;100.00
8515;BME280;4295;51.024;7.000;2022-09-27T02:40:17;-12972.47;;;-143.72;100.00
8515;BME280;4295;51.024;7.000;2022-09-27T02:42:44;-12723.41;;;-143.72;100.00
8515;BME280;4295;51.024;7.000;2022-09-27T02:45:11;-12723.41;;;-143.72;100.00
8515;BME280;4295;51.024;7.000;2022-09-27T02:48:24;-12723.41;;;-143.72;100.00
8515;BME280;4295;51.024;7.000;2022-09-27T02:50:47;-12972.47;;;-143.72;100.00
8515;BME280;4295;51.024;7.000;2022-09-27T02:53:31;-12972.47;;;-143.72;100.00
8515;BME280;4295;51.024;7.000;2022-09-27T03:01:44;-12474.28;;;-143.72;100.00
8515;BME280;4295;51.024;7.000;2022-09-27T03:04:20;-12474.28;;;-143.72;100.00
8515;BME280;4295;51.024;7.000;2022-09-27T03:06:48;-12474.28;;;-143.72;100.00
8515;BME280;4295;51.024;7.000;2022-09-27T03:09:22;-12474.28;;;-143.72;100.00
8515;BME280;4295;51.024;7.000;2022-09-27T03:11:48;-12225.16;;;-143.72;100.00
8515;BME280;4295;51.024;7.000;2022-09-27T03:14:14;-12225.16;;;-143.72;100.00
8515;BME280;4295;51.024;7.000;2022-09-27T03:16:39;-12225.16;;;-143.72;100.00
8515;BME280;4295;51.024;7.000;2022-09-27T03:19:05;-12225.16;;;-143.72;100.00
8515;BME280;4295;51.024;7.000;2022-09-27T03:21:30;-12474.28;;;-143.72;100.00
8515;BME280;4295;51.024;7.000;2022-09-27T03:23:56;-12225.16;;;-143.72;100.00
8515;BME280;4295;51.024;7.000;2022-09-27T03:26:21;-12225.16;;;-143.72;100.00
8515;BME280;4295;51.024;7.000;2022-09-27T03:28:46;-12225.16;;;-143.72;100.00
8515;BME280;4295;51.024;7.000;2022-09-27T03:31:12;-12225.16;;;-143.72;100.00
8515;BME280;4295;51.024;7.000;2022-09-27T03:33:39;-12225.16;;;-143.72;100.00
8515;BME280;4295;51.024;7.000;2022-09-27T03:36:05;-12225.16;;;-143.72;100.00
8515;BME280;4295;51.024;7.000;2022-09-27T03:38:31;-11976.03;;;-143.72;100.00
8515;BME280;4295;51.024;7.000;2022-09-27T03:40:56;-11976.03;;;-143.72;100.00
8515;BME280;4295;51.024;7.000;2022-09-27T03:43:23;-11976.03;;;-143.72;100.00
8515;BME280;4295;51.024;7.000;2022-09-27T03:45:48;-11726.88;;;-143.72;100.00
8515;BME280;4295;51.024;7.000;2022-09-27T03:48:14;-11726.88;;;-143.72;100.00
8515;BME280;4295;51.024;7.000;2022-09-27T03:50:40;-11477.69;;;-143.72;100.00
8515;BME280;4295;51.024;7.000;2022-09-27T03:53:05;-11477.69;;;-143.72;100.00
8515;BME280;4295;51.024;7.000;2022-09-27T03:55:30;-11477.69;;;-143.72;100.00
8515;BME280;4295;51.024;7.000;2022-09-27T03:57:56;-11477.69;;;-143.72;100.00
8515;BME280;4295;51.024;7.000;2022-09-27T04:00:22;-11477.69;;;-143.72;100.00
8515;BME280;4295;51.024;7.000;2022-09-27T04:02:48;-11477.69;;;-143.72;100.00
8515;BME280;4295;51.024;7.000;2022-09-27T04:05:13;-11477.69;;;-143.72;100.00
8515;BME280;4295;51.024;7.000;2022-09-27T04:07:45;-11228.50;;;-143.72;100.00
8515;BME280;4295;51.024;7.000;2022-09-27T04:10:10;-11228.50;;;-143.72;100.00
8515;BME280;4295;51.024;7.000;2022-09-27T04:12:38;-10979.28;;;-143.72;100.00
8515;BME280;4295;51.024;7.000;2022-09-27T04:15:04;-11228.50;;;-143.72;100.00
8515;BME280;4295;51.024;7.000;2022-09-27T04:17:30;-11228.50;;;-143.72;100.00
8515;BME280;4295;51.024;7.000;2022-09-27T04:19:55;-11228.50;;;-143.72;100.00
8515;BME280;4295;51.024;7.000;2022-09-27T04:22:21;-10979.28;;;-143.72;100.00
8515;BME280;4295;51.024;7.000;2022-09-27T04:24:47;-10979.28;;;-143.72;100.00
8515;BME280;4295;51.024;7.000;2022-09-27T04:27:13;-10979.28;;;-143.72;100.00
8515;BME280;4295;51.024;7.000;2022-09-27T04:29:38;-10979.28;;;-143.72;100.00
8515;BME280;4295;51.024;7.000;2022-09-27T04:32:07;-10979.28;;;-143.72;100.00
8515;BME280;4295;51.024;7.000;2022-09-27T04:34:32;-10979.28;;;-143.72;100.00
8515;BME280;4295;51.024;7.000;2022-09-27T04:37:16;-10979.28;;;-143.72;100.00
8515;BME280;4295;51.024;7.000;2022-09-27T04:39:41;-10730.03;;;-143.72;100.00
8515;BME280;4295;51.024;7.000;2022-09-27T04:42:07;-10730.03;;;-143.72;100.00
8515;BME280;4295;51.024;7.000;2022-09-27T04:44:33;-10730.03;;;-143.72;100.00
8515;BME280;4295;51.024;7.000;2022-09-27T04:46:59;-10730.03;;;-143.72;100.00
8515;BME280;4295;51.024;7.000;2022-09-27T04:49:24;-10730.03;;;-143.72;100.00
8515;BME280;4295;51.024;7.000;2022-09-27T04:51:50;-10480.78;;;-143.72;100.00
8515;BME280;4295;51.024;7.000;2022-09-27T04:54:15;-10480.78;;;-143.72;100.00
8515;BME280;4295;51.024;7.000;2022-09-27T04:56:40;-10480.78;;;-143.72;100.00
8515;BME280;4295;51.024;7.000;2022-09-27T04:59:08;-10480.78;;;-143.72;100.00
8515;BME280;4295;51.024;7.000;2022-09-27T05:01:33;-10480.78;;;-143.72;100.00
8515;BME280;4295;51.024;7.000;2022-09-27T05:03:59;-10480.78;;;-143.72;100.00
8515;BME280;4295;51.024;7.000;2022-09-27T05:06:24;-10480.78;;;-143.72;100.00
8515;BME280;4295;51.024;7.000;2022-09-27T05:08:50;-10480.78;;;-143.72;100.00
8515;BME280;4295;51.024;7.000;2022-09-27T05:11:15;-10480.78;;;-143.72;100.00
8515;BME280;4295;51.024;7.000;2022-09-27T05:13:41;-10480.78;;;-143.72;100.00
8515;BME280;4295;51.024;7.000;2022-09-27T05:16:06;-10480.78;;;-143.72;100.00
8515;BME280;4295;51.024;7.000;2022-09-27T05:18:32;-10480.78;;;-143.72;100.00
8515;BME280;4295;51.024;7.000;2022-09-27T05:20:58;-10480.78;;;-143.72;100.00
8515;BME280;4295;51.024;7.000;2022-09-27T05:23:24;-10480.78;;;-143.72;100.00
8515;BME280;4295;51.024;7.000;2022-09-27T05:25:50;-10480.78;;;-143.72;100.00
8515;BME280;4295;51.024;7.000;2022-09-27T05:28:16;-10480.78;;;-143.72;100.00
8515;BME280;4295;51.024;7.000;2022-09-27T05:30:42;-10480.78;;;-143.72;100.00
8515;BME280;4295;51.024;7.000;2022-09-27T05:33:07;-10480.78;;;-143.72;100.00
8515;BME280;4295;51.024;7.000;2022-09-27T05:35:33;-10480.78;;;-143.72;100.00
8515;BME280;4295;51.024;7.000;2022-09-27T05:37:59;-10231.50;;;-143.72;100.00
8515;BME280;4295;51.024;7.000;2022-09-27T05:40:25;-10231.50;;;-143.72;100.00
8515;BME280;4295;51.024;7.000;2022-09-27T05:42:52;-10231.50;;;-143.72;100.00
8515;BME280;4295;51.024;7.000;2022-09-27T05:45:18;-10231.50;;;-143.72;100.00
8515;BME280;4295;51.024;7.000;2022-09-27T05:48:00;-9982.22;;;-143.72;100.00
8515;BME280;4295;51.024;7.000;2022-09-27T05:50:26;-9982.22;;;-143.72;100.00
8515;BME280;4295;51.024;7.000;2022-09-27T05:52:52;-10231.50;;;-143.72;100.00
8515;BME280;4295;51.024;7.000;2022-09-27T05:55:18;-9982.22;;;-143.72;100.00
8515;BME280;4295;51.024;7.000;2022-09-27T05:57:57;-9982.22;;;-143.72;100.00
8515;BME280;4295;51.024;7.000;2022-09-27T06:00:23;-9982.22;;;-143.72;100.00
8515;BME280;4295;51.024;7.000;2022-09-27T06:02:58;-9982.22;;;-143.72;100.00
8515;BME280;4295;51.024;7.000;2022-09-27T06:05:25;-9732.91;;;-143.72;100.00
8515;BME280;4295;51.024;7.000;2022-09-27T06:07:57;-9483.56;;;-143.72;100.00
8515;BME280;4295;51.024;7.000;2022-09-27T06:10:23;-9234.22;;;-143.72;100.00
8515;BME280;4295;51.024;7.000;2022-09-27T06:12:48;-8984.84;;;-143.72;100.00
8515;BME280;4295;51.024;7.000;2022-09-27T06:15:14;-8735.47;;;-143.72;100.00
8515;BME280;4295;51.024;7.000;2022-09-27T06:17:40;-8735.47;;;-143.72;100.00
8515;BME280;4295;51.024;7.000;2022-09-27T06:20:05;-8486.03;;;-143.72;100.00
8515;BME280;4295;51.024;7.000;2022-09-27T06:22:33;-8486.03;;;-143.72;100.00
8515;BME280;4295;51.024;7.000;2022-09-27T06:24:58;-8236.63;;;-143.72;100.00
8515;BME280;4295;51.024;7.000;2022-09-27T06:27:24;-8236.63;;;-143.72;100.00
8515;BME280;4295;51.024;7.000;2022-09-27T06:29:50;-7987.16;;;-143.72;100.00
8515;BME280;4295;51.024;7.000;2022-09-27T06:32:16;-7737.72;;;-143.72;100.00
8515;BME280;4295;51.024;7.000;2022-09-27T06:34:41;-7737.72;;;-143.72;100.00
8515;BME280;4295;51.024;7.000;2022-09-27T06:37:07;-7737.72;;;-143.72;100.00
8515;BME280;4295;51.024;7.000;2022-09-27T06:39:32;-7987.16;;;-143.72;100.00
8515;BME280;4295;51.024;7.000;2022-09-27T06:41:59;-7987.16;;;-143.72;100.00
8515;BME280;4295;51.024;7.000;2022-09-27T06:44:25;-7488.22;;;-143.72;100.00
8515;BME280;4295;51.024;7.000;2022-09-27T06:46:51;-7238.72;;;-143.72;100.00
8515;BME280;4295;51.024;7.000;2022-09-27T06:49:17;-6989.19;;;-143.72;100.00
8515;BME280;4295;51.024;7.000;2022-09-27T06:51:44;-6739.66;;;-143.72;100.00
8515;BME280;4295;51.024;7.000;2022-09-27T06:54:09;-6490.09;;;-143.72;100.00
8515;BME280;4295;51.024;7.000;2022-09-27T06:56:34;-6739.66;;;-143.72;100.00
8515;BME280;4295;51.024;7.000;2022-09-27T06:59:00;-6490.09;;;-143.72;100.00
8515;BME280;4295;51.024;7.000;2022-09-27T07:01:44;-6490.09;;;-143.72;100.00
8515;BME280;4295;51.024;7.000;2022-09-27T07:04:10;-6240.50;;;-143.72;100.00
8515;BME280;4295;51.024;7.000;2022-09-27T07:06:36;-5741.28;;;-143.72;100.00
8515;BME280;4295;51.024;7.000;2022-09-27T07:09:02;-5242.00;;;-143.72;100.00
8515;BME280;4295;51.024;7.000;2022-09-27T07:11:27;-4742.63;;;-143.72;100.00
8515;BME280;4295;51.024;7.000;2022-09-27T07:13:53;-4243.19;;;-143.72;100.00
8515;BME280;4295;51.024;7.000;2022-09-27T07:16:20;-3993.44;;;-143.72;100.00
8515;BME280;4295;51.024;7.000;2022-09-27T07:18:47;-3244.06;;;-143.72;100.00
8515;BME280;4295;51.024;7.000;2022-09-27T07:21:14;-3244.06;;;-143.72;100.00
8515;BME280;4295;51.024;7.000;2022-09-27T07:23:40;-2994.25;;;-143.72;100.00
8515;BME280;4295;51.024;7.000;2022-09-27T07:26:06;-3244.06;;;-143.72;100.00
8515;BME280;4295;51.024;7.000;2022-09-27T07:28:33;-3244.06;;;-143.72;100.00
8515;BME280;4295;51.024;7.000;2022-09-27T07:30:59;-3244.06;;;-143.72;100.00
8515;BME280;4295;51.024;7.000;2022-09-27T07:33:26;-2244.63;;;-143.72;100.00
8515;BME280;4295;51.024;7.000;2022-09-27T07:35:51;-1744.81;;;-143.72;100.00
8515;BME280;4295;51.024;7.000;2022-09-27T07:38:17;-1994.72;;;-143.72;100.00
8515;BME280;4295;51.024;7.000;2022-09-27T07:40:43;-1994.72;;;-143.72;100.00
8515;BME280;4295;51.024;7.000;2022-09-27T07:43:08;-2244.63;;;-143.72;100.00
8515;BME280;4295;51.024;7.000;2022-09-27T07:45:34;-2494.53;;;-143.72;100.00
8515;BME280;4295;51.024;7.000;2022-09-27T07:48:00;-2994.25;;;-143.72;100.00
8515;BME280;4295;51.024;7.000;2022-09-27T07:50:27;-3244.06;;;-143.72;100.00
8515;BME280;4295;51.024;7.000;2022-09-27T07:52:54;-3493.88;;;-143.72;100.00
8515;BME280;4295;51.024;7.000;2022-09-27T07:55:20;-3743.66;;;-143.72;100.00
8515;BME280;4295;51.024;7.000;2022-09-27T07:57:45;-3743.66;;;-143.72;100.00
8515;BME280;4295;51.024;7.000;2022-09-27T08:00:13;-3993.44;;;-143.72;100.00
8515;BME280;4295;51.024;7.000;2022-09-27T08:02:43;-4243.19;;;-143.72;100.00
8515;BME280;4295;51.024;7.000;2022-09-27T08:05:10;-4492.91;;;-143.72;100.00
8515;BME280;4295;51.024;7.000;2022-09-27T08:07:36;-4742.63;;;-143.72;100.00
8515;BME280;4295;51.024;7.000;2022-09-27T08:10:04;-4992.31;;;-143.72;100.00
8515;BME280;4295;51.024;7.000;2022-09-27T08:12:30;-5242.00;;;-143.72;100.00
8515;BME280;4295;51.024;7.000;2022-09-27T08:14:55;-5741.28;;;-143.72;100.00
8515;BME280;4295;51.024;7.000;2022-09-27T08:17:26;-5990.91;;;-143.72;100.00
8515;BME280;4295;51.024;7.000;2022-09-27T08:19:51;-5491.66;;;-143.72;100.00
8515;BME280;4295;51.024;7.000;2022-09-27T08:22:16;-5741.28;;;-143.72;100.00
8515;BME280;4295;51.024;7.000;2022-09-27T08:24:42;-5741.28;;;-143.72;100.00
8515;BME280;4295;51.024;7.000;2022-09-27T08:27:07;-5990.91;;;-143.72;100.00
8515;BME280;4295;51.024;7.000;2022-09-27T08:29:36;-6240.50;;;-143.72;100.00
8515;BME280;4295;51.024;7.000;2022-09-27T08:32:02;-6240.50;;;-143.72;100.00
8515;BME280;4295;51.024;7.000;2022-09-27T08:34:27;-5990.91;;;-143.72;100.00
8515;BME280;4295;51.024;7.000;2022-09-27T08:36:53;-5242.00;;;-143.72;100.00
8515;BME280;4295;51.024;7.000;2022-09-27T08:39:20;-4742.63;;;-143.72;100.00
8515;BME280;4295;51.024;7.000;2022-09-27T08:44:49;-4492.91;;;-143.72;100.00
8515;BME280;4295;51.024;7.000;2022-09-27T08:47:33;-3993.44;;;-143.72;100.00
8515;BME280;4295;51.024;7.000;2022-09-27T08:50:07;-2994.25;;;-143.72;100.00
8515;BME280;4295;51.024;7.000;2022-09-27T08:52:40;-1994.72;;;-143.72;100.00
8515;BME280;4295;51.024;7.000;2022-09-27T08:55:19;-1994.72;;;-143.72;100.00
8515;BME280;4295;51.024;7.000;2022-09-27T08:57:49;-1744.81;;;-143.72;100.00
8515;BME280;4295;51.024;7.000;2022-09-27T09:00:18;-1244.91;;;-143.72;100.00
8515;BME280;4295;51.024;7.000;2022-09-27T09:02:43;-744.94;;;-143.72;100.00
8515;BME280;4295;51.024;7.000;2022-09-27T09:05:13;-744.94;;;-143.72;100.00
8515;BME280;4295;51.024;7.000;2022-09-27T09:07:57;-744.94;;;-143.72;100.00
8515;BME280;4295;51.024;7.000;2022-09-27T09:13:40;-744.94;;;-143.72;100.00
8515;BME280;4295;51.024;7.000;2022-09-27T09:27:14;7014.53;;;-143.72;100.00
8515;BME280;4295;51.024;7.000;2022-09-27T09:30:00;7515.75;;;-143.72;100.00
8515;BME280;4295;51.024;7.000;2022-09-27T09:38:04;6012.28;;;-143.72;100.00
8515;BME280;4295;51.024;7.000;2022-09-27T09:40:36;6763.94;;;-143.72;100.00
8515;BME280;4295;51.024;7.000;2022-09-27T09:43:13;7014.53;;;-143.72;100.00
8515;BME280;4295;51.024;7.000;2022-09-27T09:45:45;8518.47;;;-143.72;100.00
8515;BME280;4295;51.024;7.000;2022-09-27T09:48:44;10023.09;;;-143.72;100.00
8515;BME280;4295;51.024;7.000;2022-09-27T09:51:38;10273.94;;;-143.72;100.00
8515;BME280;4295;51.024;7.000;2022-09-27T09:54:14;10023.09;;;-143.72;100.00
8515;BME280;4295;51.024;7.000;2022-09-27T09:57:01;10023.09;;;-143.72;100.00
8515;BME280;4295;51.024;7.000;2022-09-27T09:59:34;10524.78;;;-143.72;100.00
8515;BME280;4295;51.024;7.000;2022-09-27T10:04:50;12030.34;;;-143.72;100.00
8515;BME280;4295;51.024;7.000;2022-09-27T10:07:20;12532.34;;;-143.72;100.00
8515;BME280;4295;51.024;7.000;2022-09-27T10:09:48;12783.38;;;-143.72;100.00
8515;BME280;4295;51.024;7.000;2022-09-27T10:12:14;13536.56;;;-143.72;100.00
8515;BME280;4295;51.024;7.000;2022-09-27T10:14:40;15043.50;;;-143.72;100.00
8515;BME280;4295;51.024;7.000;2022-09-27T10:17:10;14792.28;;;-143.72;100.00
8515;BME280;4295;51.024;7.000;2022-09-27T10:19:39;15545.94;;;-143.72;100.00
8515;BME280;4295;51.024;7.000;2022-09-27T10:25:00;14792.28;;;-143.72;100.00
8515;BME280;4295;51.024;7.000;2022-09-27T10:27:36;18059.41;;;-143.72;100.00
8515;BME280;4295;51.024;7.000;2022-09-27T10:30:03;19065.31;;;-143.72;100.00
8515;BME280;4295;51.024;7.000;2022-09-27T10:32:33;18310.84;;;-143.72;100.00
8515;BME280;4295;51.024;7.000;2022-09-27T10:35:21;19316.84;;;-143.72;100.00
8515;BME280;4295;51.024;7.000;2022-09-27T10:37:47;21833.13;;;-143.72;100.00
8515;BME280;4295;51.024;7.000;2022-09-27T10:40:31;22336.63;;;-143.72;100.00
8515;BME280;4295;51.024;7.000;2022-09-27T10:42:57;22588.41;;;-143.72;100.00
8515;BME280;4295;51.024;7.000;2022-09-27T10:45:31;22084.88;;;-143.72;100.00
8515;BME280;4295;51.024;7.000;2022-09-27T10:47:58;22084.88;;;-143.72;100.00
8515;BME280;4295;51.024;7.000;2022-09-27T10:50:27;22084.88;;;-143.72;100.00
8515;BME280;4295;51.024;7.000;2022-09-27T10:53:13;19568.38;;;-143.72;100.00
8515;BME280;4295;51.024;7.000;2022-09-27T10:55:41;16551.09;;;-143.72;100.00
8515;BME280;4295;51.024;7.000;2022-09-27T10:58:24;12281.34;;;-143.72;100.00
8515;BME280;4295;51.024;7.000;2022-09-27T11:01:01;9019.94;;;-143.72;100.00
8515;BME280;4295;51.024;7.000;2022-09-27T11:03:30;6262.81;;;-143.72;100.00
8515;BME280;4295;51.024;7.000;2022-09-27T11:05:57;4759.88;;;-143.72;100.00
8515;BME280;4295;51.024;7.000;2022-09-27T11:08:31;3007.34;;;-143.72;100.00
8515;BME280;4295;51.024;7.000;2022-09-27T11:11:17;1505.94;;;-143.72;100.00
8515;BME280;4295;51.024;7.000;2022-09-27T11:14:17;505.34;;;-143.72;100.00
8515;BME280;4295;51.024;7.000;2022-09-27T11:19:48;-1494.88;;;-143.72;100.00
8515;BME280;4295;51.024;7.000;2022-09-27T11:22:35;-1494.88;;;-143.72;100.00
8515;BME280;4295;51.024;7.000;2022-09-27T11:25:19;-2244.63;;;-143.72;100.00
8515;BME280;4295;51.024;7.000;2022-09-27T11:34:00;-4992.31;;;-143.72;100.00
8515;BME280;4295;51.024;7.000;2022-09-27T11:48:03;-4243.19;;;-143.72;100.00
8515;BME280;4295;51.024;7.000;2022-09-27T11:50:51;-2994.25;;;-143.72;100.00
8515;BME280;4295;51.024;7.000;2022-09-27T11:53:35;-1994.72;;;-143.72;100.00
8515;BME280;4295;51.024;7.000;2022-09-27T12:01:53;505.34;;;-143.72;100.00
8515;BME280;4295;51.024;7.000;2022-09-27T12:04:52;5.19;;;-143.72;100.00
8515;BME280;4295;51.024;7.000;2022-09-27T12:10:14;1255.75;;;-143.72;100.00
8515;BME280;4295;51.024;7.000;2022-09-27T12:12:43;1505.94;;;-143.72;100.00
8515;BME280;4295;51.024;7.000;2022-09-27T12:15:21;1255.75;;;-143.72;100.00
8515;BME280;4295;51.024;7.000;2022-09-27T12:17:51;255.25;;;-143.72;100.00
8515;BME280;4295;51.024;7.000;2022-09-27T12:20:25;255.25;;;-143.72;100.00
8515;BME280;4295;51.024;7.000;2022-09-27T12:25:40;755.47;;;-143.72;100.00
8515;BME280;4295;51.024;7.000;2022-09-27T12:30:55;1505.94;;;-143.72;100.00
8515;BME280;4295;51.024;7.000;2022-09-27T12:33:41;2506.81;;;-143.72;100.00
8515;BME280;4295;51.024;7.000;2022-09-27T12:36:13;3758.31;;;-143.72;100.00
8515;BME280;4295;51.024;7.000;2022-09-27T12:39:56;4509.47;;;-143.72;100.00
8515;BME280;4295;51.024;7.000;2022-09-27T12:42:00;4759.88;;;-143.72;100.00
8515;BME280;4295;51.024;7.000;2022-09-27T12:44:37;6763.94;;;-143.72;100.00
8515;BME280;4295;51.024;7.000;2022-09-27T12:47:16;6763.94;;;-143.72;100.00
8515;BME280;4295;51.024;7.000;2022-09-27T12:52:23;5010.31;;;-143.72;100.00
8515;BME280;4295;51.024;7.000;2022-09-27T12:55:04;4259.06;;;-143.72;100.00
8515;BME280;4295;51.024;7.000;2022-09-27T13:01:10;3257.66;;;-143.72;100.00
8515;BME280;4295;51.024;7.000;2022-09-27T13:12:09;-744.94;;;-143.72;100.00
8515;BME280;4295;51.024;7.000;2022-09-27T13:14:47;-1994.72;;;-143.72;100.00
8515;BME280;4295;51.024;7.000;2022-09-27T13:22:55;-4992.31;;;-143.72;100.00
8515;BME280;4295;51.024;7.000;2022-09-27T13:28:33;-5491.66;;;-143.72;100.00
8515;BME280;4295;51.024;7.000;2022-09-27T13:31:10;-5741.28;;;-143.72;100.00
8515;BME280;4295;51.024;7.000;2022-09-27T13:41:19;-7488.22;;;-143.72;100.00
8515;BME280;4295;51.024;7.000;2022-09-27T13:44:11;-7737.72;;;-143.72;100.00
8515;BME280;4295;51.024;7.000;2022-09-27T13:46:46;-7488.22;;;-143.72;100.00
8515;BME280;4295;51.024;7.000;2022-09-27T13:49:38;-7488.22;;;-143.72;100.00
8515;BME280;4295;51.024;7.000;2022-09-27T13:54:55;-6739.66;;;-143.72;100.00
8515;BME280;4295;51.024;7.000;2022-09-27T14:02:54;-7238.72;;;-143.72;100.00
8515;BME280;4295;51.024;7.000;2022-09-27T14:05:35;-6989.19;;;-143.72;100.00
8515;BME280;4295;51.024;7.000;2022-09-27T14:08:03;-6739.66;;;-143.72;100.00
8515;BME280;4295;51.024;7.000;2022-09-27T14:10:30;-6240.50;;;-143.72;100.00
8515;BME280;4295;51.024;7.000;2022-09-27T14:12:57;-5242.00;;;-143.72;100.00
8515;BME280;4295;51.024;7.000;2022-09-27T14:15:27;-4243.19;;;-143.72;100.00
8515;BME280;4295;51.024;7.000;2022-09-27T14:17:54;-3743.66;;;-143.72;100.00
8515;BME280;4295;51.024;7.000;2022-09-27T14:22:58;-2244.63;;;-143.72;100.00
8515;BME280;4295;51.024;7.000;2022-09-27T14:25:24;-2244.63;;;-143.72;100.00
8515;BME280;4295;51.024;7.000;2022-09-27T14:27:50;-2244.63;;;-143.72;100.00
8515;BME280;4295;51.024;7.000;2022-09-27T14:30:21;-1994.72;;;-143.72;100.00
8515;BME280;4295;51.024;7.000;2022-09-27T14:32:48;-1494.88;;;-143.72;100.00
8515;BME280;4295;51.024;7.000;2022-09-27T14:35:16;-744.94;;;-143.72;100.00
8515;BME280;4295;51.024;7.000;2022-09-27T14:38:06;5.19;;;-143.72;100.00
8515;BME280;4295;51.024;7.000;2022-09-27T14:40:38;2006.31;;;-143.72;100.00
8515;BME280;4295;51.024;7.000;2022-09-27T14:43:05;4509.47;;;-143.72;100.00
8515;BME280;4295;51.024;7.000;2022-09-27T14:45:38;6513.34;;;-143.72;100.00
8515;BME280;4295;51.024;7.000;2022-09-27T14:48:27;7265.13;;;-143.72;100.00
8515;BME280;4295;51.024;7.000;2022-09-27T14:50:54;7515.75;;;-143.72;100.00
8515;BME280;4295;51.024;7.000;2022-09-27T14:53:23;7515.75;;;-143.72;100.00
8515;BME280;4295;51.024;7.000;2022-09-27T14:55:49;9019.94;;;-143.72;100.00
8515;BME280;4295;51.024;7.000;2022-09-27T14:58:17;8267.75;;;-143.72;100.00
8515;BME280;4295;51.024;7.000;2022-09-27T15:00:45;7265.13;;;-143.72;100.00
8515;BME280;4295;51.024;7.000;2022-09-27T15:03:18;6012.28;;;-143.72;100.00
8515;BME280;4295;51.024;7.000;2022-09-27T15:05:45;5761.75;;;-143.72;100.00
8515;BME280;4295;51.024;7.000;2022-09-27T15:08:11;5511.25;;;-143.72;100.00
8515;BME280;4295;51.024;7.000;2022-09-27T15:10:39;5761.75;;;-143.72;100.00
8515;BME280;4295;51.024;7.000;2022-09-27T15:13:05;6513.34;;;-143.72;100.00
8515;BME280;4295;51.024;7.000;2022-09-27T15:15:35;8017.06;;;-143.72;100.00
8515;BME280;4295;51.024;7.000;2022-09-27T15:18:03;8267.75;;;-143.72;100.00
8515;BME280;4295;51.024;7.000;2022-09-27T15:20:52;7766.41;;;-143.72;100.00
8515;BME280;4295;51.024;7.000;2022-09-27T15:23:29;8017.06;;;-143.72;100.00
8515;BME280;4295;51.024;7.000;2022-09-27T15:26:03;7766.41;;;-143.72;100.00